• Join FlightAware (Why Join?)
  • Login
  • US Flag 
04:17PM EST


 

Airport Tracker/Info


-or-


 

Live Flight TrackerFlight Track Log ✈ N328SR ✈ 07-Aug-2013 ✈ KBTV - KGON

Flight Track Log - Related Links

Times and Time Zones

All times are in EDT time to prevent confusion due to time zone crossing. See the N328SR flight status page for this flight to view local times or setup timezone preferences in your user account.

Time Position Orientation Groundspeed Altitude Reporting Facility
EDT Latitude Longitude Course Direction KTS MPH feet Rate Location/Type
07:11PM 44.1036 -73.0183 167° South 166 191 10,200  Level Boston Center
07:12PM 44.0578 -73.0033 167° South 166 191 11,000 600 Climbing Boston Center
07:13PM 44.0122 -72.9856 164° South 166 191 11,400 180 Climbing Boston Center
07:14PM 43.9600 -72.9678 166° South 181 208 11,400  Level Boston Center
07:15PM 43.9103 -72.9500 166° South 186 214 11,500 300 Climbing Boston Center
07:16PM 43.8622 -72.9325 165° South 186 214 12,100 540 Climbing Boston Center
07:17PM 43.8083 -72.9119 165° South 186 214 12,700 600 Climbing Boston Center
07:18PM 43.7583 -72.8972 168° South 180 207 13,300 600 Climbing Boston Center
07:19PM 43.7103 -72.8794 165° South 180 207 13,900 480 Climbing Boston Center
07:20PM 43.6625 -72.8561 161° South 180 207 14,300 180 Climbing Boston Center
07:21PM 43.6083 -72.8414 169° South 185 213 14,300  Level Boston Center
07:22PM 43.5544 -72.8183 163° South 190 219 14,300  Level Boston Center
07:23PM 43.5022 -72.8036 168° South 195 224 14,300  Level Boston Center
07:24PM 43.4481 -72.7833 165° South 201 231 14,300  Level Boston Center
07:25PM 43.3942 -72.7631 165° South 201 231 14,300  Level Boston Center
07:26PM 43.3419 -72.7428 164° South 201 231 14,300  Level Boston Center
07:27PM 43.2794 -72.7225 167° South 201 231 14,300  Level Boston Center
07:28PM 43.2253 -72.7022 165° South 201 231 14,300  Level Boston Center
07:29PM 43.1714 -72.6819 165° South 201 231 14,300  Level Boston Center
07:30PM 43.1192 -72.6647 166° South 201 231 14,300  Level Boston Center
07:31PM 43.0650 -72.6447 165° South 201 231 14,300  Level Boston Center
07:32PM 43.0108 -72.6247 165° South 201 231 14,400  Climbing Boston Center
07:33PM 42.9589 -72.6075 166° South 201 231 14,400  Level Boston Center
07:34PM 42.9047 -72.5875 165° South 201 231 14,400  Level Boston Center
07:35PM 42.8547 -72.5703 166° South 201 231 14,400  Level Boston Center
07:36PM 42.8025 -72.5475 162° South 201 231 14,500  Climbing Boston Center
07:37PM 42.7506 -72.5164 156° South 201 231 14,400 -60 Descending Boston Center
07:38PM 42.6983 -72.4967 164° South 201 231 14,400  Level Boston Center
07:40PM 42.5922 -72.4542 164° South 201 231 14,400  Level Boston Center
07:41PM 42.5381 -72.4317 163° South 201 231 14,500  Climbing Boston Center
07:42PM 42.4839 -72.4092 163° South 201 231 14,500 -60 Level Boston Center
07:43PM 42.4400 -72.3894 162° South 201 231 14,400  Descending Boston Center
07:45PM 42.3700 -72.4000 180° South  Level FlightAware Approximate
07:46PM 42.2689 -72.3194 167° South 207 238 14,500  Level Boston Center
07:47PM 42.2189 -72.2972 162° South 207 238 14,400 -60 Descending Boston Center
07:48PM 42.1586 -72.2719 163° South 207 238 14,400  Level Boston Center
07:49PM 42.0939 -72.2469 164° South 207 238 14,400  Level Boston Center
07:50PM 42.0397 -72.2219 161° South 207 238 14,400  Level Boston Center
07:51PM 41.9917 -72.2028 163° South 207 238 14,500  Climbing Boston Center
07:52PM 42.0598 -72.2879 167° South  Level FlightAware Approximate
07:52PM 41.9311 -72.1778 163° South 207 238 14,500  Level Boston Center
07:53PM 41.9000 -72.1639 162° South 206 237 14,500  Level Boston Center
07:54PM 41.8414 -72.1392 163° South 204 235 14,500 -60 Level Boston Center
07:55PM 41.7872 -72.1200 165° South 204 235 14,400 -60 Descending Boston Center
07:56PM 41.7331 -72.0981 163° South 202 232 14,400  Level Boston Center
07:58PM 41.6558 -72.0879 169° South  Level Estimated
08:05PM 41.3344 -72.0457 163° South  Level Estimated
08:06PM 41.3301 -72.0451 163° South  Level Estimated
08:07PM 41.3301 -72.0451 163° South  Level Estimated
08:08PM 41.3301 -72.0451 163° South  Level Estimated
08:09PM 41.3301 -72.0451 163° South  Level Estimated
08:10PM 41.3301 -72.0451 163° South  Level Estimated
08:11PM 41.3301 -72.0451 163° South  Level Estimated
08:12PM 41.3301 -72.0451 163° South  Level Estimated
08:13PM 41.3301 -72.0451 163° South  Level Estimated
08:14PM 41.3301 -72.0451 163° South  Level Estimated
08:15PM 41.3301 -72.0451 163° South  Level Estimated
08:16PM 41.3301 -72.0451 163° South  Level Estimated
08:17PM 41.3301 -72.0451 163° South  Level Estimated
08:18PM 41.3301 -72.0451 163° South  Level Estimated
08:19PM 41.3301 -72.0451 163° South  Level Estimated
08:20PM 41.3301 -72.0451 163° South  Level Estimated
08:21PM 41.3301 -72.0451 163° South  Level Estimated
08:22PM 41.3301 -72.0451 163° South  Level Estimated